Chelsea, NY (12512)

1:16 PM EDT on May 30, 2015 (GMT -0400)
Beacon | | Change Station
CLOSE
Current Station
Personal Weather Station
Location: Beacon, NY
Elevation: 180 ft
Nearby Weather Stations

Elev 180 ft 41.50 °N, 73.96 °W | Updated 10 minutes ago

Mostly Cloudy
Mostly Cloudy
89.8 °F
Feels Like 95 °F
N
6.8
Wind Variable Wind from West

Today
High -- | Low -- °F
--% Chance of Precip.
Yesterday
High -- | Low -- °F
Precip. -- in
5:25 AM 8:21 PM
Waxing Gibbous, 91% visible
Pressure 30.10 in
Visibility 10.0 miles
Clouds Overcast 4000 ft
Heat Index 95 °F
Dew Point 70 °F
Humidity 52%
Rainfall 0.00 in
Snow Depth Not available.
UV 3 out of 12
Pollen 9.90 out of 12
Air Quality Not available.
Flu Activity Sporadic
METAR KPOU 301653Z 18007KT 10SM OVC040 28/18 A3011 RMK AO2 SLP193 T02780183

More Conditions Fewer Conditions

Pressure 30.10 in
Visibility 10.0 miles
Clouds Overcast 4000 ft
Heat Index 95 °F
Dew Point 70 °F
Humidity 52%
Rainfall 0.00 in
Snow Depth Not available.
UV 3 out of 12
Pollen 9.90 out of 12
Air Quality Not available.
Flu Activity Sporadic
METAR KPOU 301653Z 18007KT 10SM OVC040 28/18 A3011 RMK AO2 SLP193 T02780183

More Conditions Fewer Conditions

10-Day Weather Forecast

Almanac

Astronomy

May. 30, 2015 Rise Set
Actual Time
Civil Twilight
Nautical Twilight
Astronomical Twilight
Moon
Length of Visible Light
Length of Day
Tomorrow will be .
, % of the Moon is Illuminated

Today's Extremes

State Highs State Lows

Community

WunderPhotos

Upload Photos

1,825,573 photos uploaded!

WunderBlogs® & News

Nearby

Air Quality

  Air Quality AQ Index Pollutant
Not available.

Snow Depth

Station Depth Elevation

Earthquake Activity

City Distance Mag. Time & Date
Minimum magnitude displayed is 2.5.

Coastal Water Temperatures

Place Temperature

Stations

Nearby Weather Stations

Station Location Temp. Windchill Dew Point Humidity Wind Precip. Elev Updated Type